Time;durP1;ratioP1;P1;durP2;ratioP2;P2;SDS_P1;SDS_P2;PMS_P1;PMS_P2;Temp;Humidity;BMP_temperature;BMP_pressure;BME280_temperature;BME280_humidity;BME280_pressure;Samples;Min_cycle;Max_cycle;Signal;HPM_P1;HPM_P2
2022/12/31 00:00:26;;;;;;;45.17;20.27;;;;;;;2.95;100.00;99135.22;5049681;28;20476;-67
2022/12/31 00:03:25;;;;;;;42.85;20.02;;;;;;;3.00;100.00;99136.84;5050089;28;20037;-67
2022/12/31 00:06:18;;;;;;;43.95;18.65;;;;;;;3.16;100.00;99129.41;5050586;28;20127;-67
2022/12/31 00:09:05;;;;;;;39.17;17.45;;;;;;;3.18;100.00;99135.41;5040744;28;20049;-68
2022/12/31 00:11:50;;;;;;;47.28;20.00;;;;;;;3.13;100.00;99153.69;5049085;28;20083;-66
2022/12/31 00:14:35;;;;;;;40.38;18.88;;;;;;;3.08;100.00;99143.44;5050614;28;20041;-66
2022/12/31 00:17:20;;;;;;;38.75;19.58;;;;;;;3.05;100.00;99140.94;5049932;28;20465;-66
2022/12/31 00:20:05;;;;;;;41.75;18.90;;;;;;;3.01;100.00;99146.28;5050418;28;20060;-67
2022/12/31 00:22:50;;;;;;;40.05;19.45;;;;;;;3.13;100.00;99142.47;5050111;28;20135;-66
2022/12/31 00:25:35;;;;;;;40.30;18.48;;;;;;;3.18;100.00;99154.34;5049194;28;20033;-66
2022/12/31 00:28:20;;;;;;;39.85;18.52;;;;;;;3.14;100.00;99162.28;5049986;28;20419;-66
2022/12/31 00:31:10;;;;;;;46.65;20.88;;;;;;;2.90;100.00;99162.16;5049348;28;20120;-66
2022/12/31 00:33:57;;;;;;;37.65;17.88;;;;;;;2.91;100.00;99162.09;5041190;28;20128;-66
2022/12/31 00:36:41;;;;;;;46.67;19.10;;;;;;;2.83;100.00;99145.97;5056557;28;20042;-66
2022/12/31 00:39:26;;;;;;;41.17;18.75;;;;;;;2.85;100.00;99157.13;5056468;28;20128;-66
2022/12/31 00:42:10;;;;;;;36.05;17.17;;;;;;;2.83;100.00;99167.53;5054881;28;20048;-67
2022/12/31 00:44:55;;;;;;;38.63;19.40;;;;;;;2.77;100.00;99161.69;5054979;28;20152;-65
2022/12/31 00:47:40;;;;;;;42.05;19.55;;;;;;;2.74;100.00;99156.59;5056566;28;20037;-68
2022/12/31 00:50:24;;;;;;;42.13;18.65;;;;;;;2.84;100.00;99160.59;5046416;28;20041;-66
2022/12/31 00:53:09;;;;;;;39.40;19.05;;;;;;;2.89;100.00;99165.66;5056816;28;20071;-66
2022/12/31 00:56:04;;;;;;;40.03;18.20;;;;;;;2.93;100.00;99168.09;5044632;28;20489;-66
2022/12/31 00:58:49;;;;;;;39.13;18.90;;;;;;;2.94;100.00;99177.53;5055518;28;20041;-67
2022/12/31 01:01:37;;;;;;;42.10;19.95;;;;;;;2.92;100.00;99184.50;5048143;28;20554;-67
2022/12/31 01:04:21;;;;;;;37.75;19.48;;;;;;;3.04;100.00;99177.25;5055613;28;20051;-67
2022/12/31 01:07:06;;;;;;;43.65;20.15;;;;;;;3.11;100.00;99185.69;5056100;28;20045;-66
2022/12/31 01:09:52;;;;;;;44.20;19.88;;;;;;;3.01;100.00;99172.16;5056590;28;20059;-66
2022/12/31 01:12:37;;;;;;;41.92;20.35;;;;;;;2.75;100.00;99166.03;5056589;28;20064;-67
2022/12/31 01:15:22;;;;;;;43.15;19.92;;;;;;;2.87;100.00;99177.78;5044992;28;20049;-67
2022/12/31 01:18:07;;;;;;;41.20;19.55;;;;;;;2.87;100.00;99189.00;5050982;28;20126;-67
2022/12/31 01:20:52;;;;;;;42.97;20.60;;;;;;;2.95;100.00;99202.53;5046034;28;20789;-66
2022/12/31 01:23:37;;;;;;;43.67;20.15;;;;;;;2.89;100.00;99186.34;5056176;28;20041;-67
2022/12/31 01:26:22;;;;;;;39.25;18.75;;;;;;;2.83;100.00;99195.13;5055872;28;20720;-67
2022/12/31 01:29:09;;;;;;;49.55;22.05;;;;;;;2.94;100.00;99184.44;5055813;28;20115;-66
2022/12/31 01:31:54;;;;;;;44.47;20.13;;;;;;;2.88;100.00;99163.94;5043203;28;20045;-66
2022/12/31 01:34:38;;;;;;;42.83;20.73;;;;;;;2.76;100.00;99140.13;5055182;28;20051;-69
2022/12/31 01:37:23;;;;;;;41.80;20.15;;;;;;;2.69;100.00;99149.81;5056073;28;20121;-67
2022/12/31 01:40:08;;;;;;;41.10;19.73;;;;;;;2.64;100.00;99133.59;5056178;28;20052;-66
2022/12/31 01:42:54;;;;;;;49.08;21.33;;;;;;;2.63;100.00;99138.81;5056572;28;20138;-66
2022/12/31 01:45:40;;;;;;;40.10;19.58;;;;;;;2.66;100.00;99130.97;5050615;28;20112;-66
2022/12/31 01:48:27;;;;;;;42.88;19.77;;;;;;;2.66;100.00;99138.72;5052998;28;20055;-67
2022/12/31 01:51:11;;;;;;;35.45;18.58;;;;;;;2.71;100.00;99136.81;5053391;28;20041;-66
2022/12/31 01:53:58;;;;;;;43.00;18.75;;;;;;;2.69;100.00;99151.56;5053124;28;20049;-67
2022/12/31 01:56:46;;;;;;;46.22;20.08;;;;;;;2.78;100.00;99153.00;5052874;28;20037;-68
2022/12/31 01:59:32;;;;;;;37.03;18.23;;;;;;;2.75;100.00;99159.13;5051404;28;20067;-67
2022/12/31 02:02:17;;;;;;;36.22;18.67;;;;;;;2.82;100.00;99149.44;5051928;28;20045;-68
2022/12/31 02:05:09;;;;;;;39.80;19.42;;;;;;;2.69;100.00;99164.50;5051345;28;20389;-66
2022/12/31 02:07:55;;;;;;;38.90;19.73;;;;;;;2.66;100.00;99180.13;5037916;28;20048;-66
2022/12/31 02:10:39;;;;;;;39.72;19.02;;;;;;;2.67;100.00;99179.22;5051065;28;20370;-66
2022/12/31 02:13:24;;;;;;;35.85;17.88;;;;;;;2.65;100.00;99188.75;5039658;28;20041;-66
2022/12/31 02:16:20;;;;;;;39.63;18.73;;;;;;;2.73;100.00;99193.69;5052093;28;20041;-65
2022/12/31 02:19:22;;;;;;;38.40;19.73;;;;;;;2.74;100.00;99183.31;5051357;28;20041;-65
2022/12/31 02:22:37;;;;;;;40.40;19.42;;;;;;;2.71;100.00;99199.78;5038468;28;20053;-67
2022/12/31 02:25:47;;;;;;;39.08;20.02;;;;;;;2.66;100.00;99198.22;5044341;28;20556;-66
2022/12/31 02:28:40;;;;;;;42.92;19.42;;;;;;;2.70;100.00;99198.09;5044693;28;20461;-67
2022/12/31 02:31:36;;;;;;;43.45;19.60;;;;;;;2.70;100.00;99190.31;5050861;28;20045;-67
2022/12/31 02:34:37;;;;;;;41.70;19.08;;;;;;;2.82;100.00;99190.84;5039571;28;20120;-67
2022/12/31 02:37:24;;;;;;;42.67;20.17;;;;;;;2.76;100.00;99196.22;5036398;28;20041;-67
2022/12/31 02:40:13;;;;;;;41.03;19.55;;;;;;;2.71;100.00;99181.66;5050692;28;20511;-66
2022/12/31 02:42:58;;;;;;;42.65;20.20;;;;;;;2.75;100.00;99187.59;5051735;28;20053;-66
2022/12/31 02:45:53;;;;;;;39.85;19.08;;;;;;;2.82;100.00;99178.75;5040497;28;20359;-65
2022/12/31 02:49:05;;;;;;;41.25;20.02;;;;;;;2.77;100.00;99184.97;5036452;28;20490;-66
2022/12/31 02:51:58;;;;;;;37.25;17.45;;;;;;;2.85;100.00;99188.19;5051830;28;20076;-66
2022/12/31 02:54:49;;;;;;;39.35;18.92;;;;;;;2.81;100.00;99199.50;5050920;28;20049;-66
2022/12/31 02:57:33;;;;;;;39.22;19.30;;;;;;;2.89;100.00;99201.88;5036337;28;20065;-66
2022/12/31 03:03:25;;;;;;;36.20;18.52;;;;;;;2.91;100.00;99213.00;5039910;28;20456;-67
2022/12/31 03:06:12;;;;;;;40.13;18.65;;;;;;;2.91;100.00;99213.00;5051182;28;20503;-66
2022/12/31 03:09:13;;;;;;;37.40;17.45;;;;;;;2.89;100.00;99207.88;5049838;28;20059;-68
2022/12/31 03:15:05;;;;;;;37.55;18.88;;;;;;;2.83;100.00;99228.78;5051332;28;20064;-66
2022/12/31 03:17:51;;;;;;;39.63;18.83;;;;;;;2.80;100.00;99228.88;5050726;28;20120;-66
2022/12/31 03:26:46;;;;;;;43.88;20.00;;;;;;;2.82;100.00;99237.44;5043074;28;20081;-67
2022/12/31 03:29:33;;;;;;;45.38;19.85;;;;;;;2.79;100.00;99238.38;5050860;28;20033;-66
2022/12/31 03:32:18;;;;;;;47.50;20.75;;;;;;;2.78;100.00;99230.66;5051373;28;20183;-66
2022/12/31 03:35:03;;;;;;;43.88;19.85;;;;;;;2.83;100.00;99246.91;5050999;28;20048;-66
2022/12/31 03:37:50;;;;;;;45.65;20.45;;;;;;;2.85;100.00;99244.25;5040798;28;20496;-66
2022/12/31 03:40:44;;;;;;;39.70;18.60;;;;;;;2.87;100.00;99237.31;5035530;28;20438;-66
2022/12/31 03:43:28;;;;;;;47.95;21.17;;;;;;;2.83;100.00;99250.34;5050639;28;20072;-66
2022/12/31 03:46:13;;;;;;;49.30;20.50;;;;;;;2.85;100.00;99252.03;5050928;28;20051;-66
2022/12/31 03:48:58;;;;;;;45.00;21.77;;;;;;;2.79;100.00;99261.66;5049475;28;20396;-66
2022/12/31 03:51:43;;;;;;;49.13;20.63;;;;;;;2.80;100.00;99258.19;5050341;28;20048;-65
2022/12/31 03:54:28;;;;;;;42.08;19.95;;;;;;;2.88;100.00;99267.47;5050870;28;20076;-65
2022/12/31 03:57:12;;;;;;;43.15;19.63;;;;;;;2.84;100.00;99271.88;5050793;28;20762;-66
2022/12/31 03:59:57;;;;;;;40.15;19.02;;;;;;;2.83;100.00;99278.81;5049589;28;20045;-66
2022/12/31 04:02:44;;;;;;;40.95;20.80;;;;;;;2.81;100.00;99262.47;5050627;28;20056;-68
2022/12/31 04:05:30;;;;;;;42.72;20.92;;;;;;;2.83;100.00;99276.22;5050881;28;20183;-66
2022/12/31 04:08:15;;;;;;;35.58;17.73;;;;;;;2.87;100.00;99286.47;5050243;28;20045;-66
2022/12/31 04:10:59;;;;;;;43.45;19.48;;;;;;;2.83;100.00;99285.72;5048814;28;20049;-66
2022/12/31 04:13:44;;;;;;;44.15;19.33;;;;;;;2.91;100.00;99280.31;5049925;28;20043;-66
2022/12/31 04:16:29;;;;;;;40.08;18.38;;;;;;;2.94;100.00;99293.16;5049975;28;20056;-66
2022/12/31 04:19:14;;;;;;;41.22;18.42;;;;;;;2.96;100.00;99301.75;5049783;28;20134;-66
2022/12/31 04:21:58;;;;;;;41.55;19.48;;;;;;;3.03;100.00;99292.06;5050066;28;20438;-66
2022/12/31 04:24:43;;;;;;;43.70;18.80;;;;;;;3.03;100.00;99308.47;5037244;28;20429;-65
2022/12/31 04:27:28;;;;;;;36.83;18.05;;;;;;;3.15;100.00;99314.19;5049923;28;20500;-66
2022/12/31 04:30:14;;;;;;;37.80;18.15;;;;;;;3.20;100.00;99312.28;5049105;28;20115;-66
2022/12/31 04:32:58;;;;;;;36.63;18.38;;;;;;;3.24;100.00;99323.41;5050003;28;20139;-66
2022/12/31 04:35:43;;;;;;;37.47;19.35;;;;;;;3.31;100.00;99323.16;5049005;28;20441;-66
2022/12/31 04:38:30;;;;;;;39.97;18.48;;;;;;;3.37;100.00;99314.38;5034530;28;20483;-66
2022/12/31 04:41:18;;;;;;;36.78;19.08;;;;;;;3.31;100.00;99317.16;5050307;28;20041;-66
2022/12/31 04:44:02;;;;;;;34.75;16.73;;;;;;;3.35;100.00;99313.56;5036829;28;20491;-66
2022/12/31 04:46:47;;;;;;;39.30;18.80;;;;;;;3.29;100.00;99316.34;5049697;28;20045;-67
2022/12/31 04:49:32;;;;;;;42.45;18.38;;;;;;;3.23;100.00;99324.31;5049758;28;20381;-67
2022/12/31 04:52:17;;;;;;;66.28;20.15;;;;;;;3.15;100.00;99319.34;5039583;28;20051;-66
2022/12/31 04:55:02;;;;;;;47.78;18.42;;;;;;;3.06;100.00;99316.13;5049806;28;20124;-66
2022/12/31 04:57:46;;;;;;;47.22;18.40;;;;;;;3.15;100.00;99324.53;5048559;28;20061;-66
2022/12/31 05:00:31;;;;;;;48.42;19.45;;;;;;;3.20;100.00;99333.00;5049793;28;20048;-66
2022/12/31 05:03:17;;;;;;;47.97;18.65;;;;;;;3.13;100.00;99340.13;5048833;28;20136;-66
2022/12/31 05:06:13;;;;;;;44.33;18.80;;;;;;;3.23;100.00;99340.69;5049577;28;20052;-66
2022/12/31 05:08:57;;;;;;;48.22;21.27;;;;;;;3.15;100.00;99338.31;5048777;28;20083;-65
2022/12/31 05:11:42;;;;;;;56.42;20.10;;;;;;;3.14;100.00;99338.34;5048423;28;20067;-66
2022/12/31 05:14:26;;;;;;;80.35;22.48;;;;;;;3.11;100.00;99331.53;5049277;28;20055;-67
2022/12/31 05:17:11;;;;;;;44.67;19.02;;;;;;;3.14;100.00;99333.19;5049960;28;20052;-66
2022/12/31 05:19:56;;;;;;;46.80;21.55;;;;;;;3.10;100.00;99321.22;5039369;28;20049;-67
2022/12/31 05:22:41;;;;;;;49.83;20.35;;;;;;;3.08;100.00;99308.31;5053455;28;20047;-66
2022/12/31 05:25:26;;;;;;;39.13;19.30;;;;;;;3.07;100.00;99304.88;5053424;28;20049;-67
2022/12/31 05:28:11;;;;;;;41.88;19.85;;;;;;;3.05;100.00;99300.66;5052617;28;20056;-66
2022/12/31 05:30:56;;;;;;;39.53;19.45;;;;;;;3.08;100.00;99303.97;5052558;28;20077;-67
2022/12/31 05:33:40;;;;;;;42.97;19.55;;;;;;;3.13;100.00;99297.81;5053203;28;20109;-66
2022/12/31 05:36:25;;;;;;;41.90;19.20;;;;;;;3.19;100.00;99305.41;5033543;28;20037;-66
2022/12/31 05:39:10;;;;;;;35.25;17.45;;;;;;;3.27;100.00;99311.22;5040837;28;20098;-67
2022/12/31 05:41:54;;;;;;;36.70;18.15;;;;;;;3.42;100.00;99314.25;5053259;28;20044;-67
2022/12/31 05:44:39;;;;;;;35.17;17.60;;;;;;;3.48;100.00;99313.22;5053064;28;20040;-67
2022/12/31 05:47:24;;;;;;;38.20;17.67;;;;;;;3.50;100.00;99324.38;5053604;28;20048;-66
2022/12/31 05:50:11;;;;;;;34.38;17.20;;;;;;;3.64;100.00;99324.78;5038055;28;20049;-66
2022/12/31 05:52:56;;;;;;;33.13;16.38;;;;;;;3.66;100.00;99322.16;5052842;28;20060;-68
2022/12/31 05:55:40;;;;;;;32.45;16.98;;;;;;;3.76;100.00;99335.66;5052872;28;20389;-68
2022/12/31 05:58:25;;;;;;;31.63;15.60;;;;;;;3.80;100.00;99340.69;5040437;28;20049;-68
2022/12/31 06:01:09;;;;;;;31.58;16.35;;;;;;;3.80;100.00;99348.47;5049616;28;20472;-67
2022/12/31 06:03:54;;;;;;;35.38;17.38;;;;;;;3.77;100.00;99348.56;5045440;28;20557;-67
2022/12/31 06:06:38;;;;;;;29.30;14.90;;;;;;;3.76;100.00;99353.81;5041354;28;20044;-67
2022/12/31 06:09:25;;;;;;;26.67;14.95;;;;;;;3.85;100.00;99352.69;5051442;28;20597;-67
2022/12/31 06:12:09;;;;;;;27.40;14.55;;;;;;;3.88;100.00;99358.63;5053014;28;20053;-67
2022/12/31 06:14:54;;;;;;;27.92;15.18;;;;;;;3.85;100.00;99373.44;5052457;28;20041;-66
2022/12/31 06:17:38;;;;;;;29.98;15.35;;;;;;;3.84;100.00;99367.38;5052435;28;20049;-66
2022/12/31 06:20:23;;;;;;;29.50;15.45;;;;;;;3.90;100.00;99376.72;5051838;28;20048;-66
2022/12/31 06:23:08;;;;;;;29.25;15.73;;;;;;;3.90;100.00;99379.31;5039084;28;20045;-66
2022/12/31 06:25:52;;;;;;;30.02;15.95;;;;;;;3.97;100.00;99361.81;5052432;28;20136;-67
2022/12/31 06:28:38;;;;;;;30.08;16.23;;;;;;;4.02;100.00;99368.56;5052105;28;20520;-66
2022/12/31 06:31:23;;;;;;;30.42;15.98;;;;;;;3.98;100.00;99373.91;5052069;28;20751;-66
2022/12/31 06:34:07;;;;;;;30.92;15.85;;;;;;;3.99;100.00;99379.03;5050628;28;20519;-66
2022/12/31 06:36:52;;;;;;;33.03;16.55;;;;;;;4.12;100.00;99389.00;5050945;28;20152;-66
2022/12/31 06:39:37;;;;;;;31.13;17.02;;;;;;;4.08;100.00;99390.84;5051083;28;20389;-66
2022/12/31 06:42:22;;;;;;;30.35;15.52;;;;;;;4.10;100.00;99401.19;5040015;28;20029;-66
2022/12/31 06:45:07;;;;;;;31.60;16.25;;;;;;;4.02;100.00;99404.00;5050338;28;20041;-66
2022/12/31 06:47:51;;;;;;;35.17;16.83;;;;;;;3.96;100.00;99406.78;5051537;28;20053;-67
2022/12/31 06:50:36;;;;;;;37.47;18.88;;;;;;;3.92;100.00;99416.41;5041260;28;20041;-67
2022/12/31 06:53:21;;;;;;;37.70;18.73;;;;;;;3.78;100.00;99417.69;5051762;28;20374;-67
2022/12/31 06:56:08;;;;;;;42.50;19.73;;;;;;;3.82;100.00;99411.50;5050635;28;20040;-67
2022/12/31 06:58:54;;;;;;;48.75;22.05;;;;;;;3.74;100.00;99418.66;5051157;28;20057;-67
2022/12/31 07:01:50;;;;;;;47.13;21.60;;;;;;;3.68;100.00;99422.28;5043876;28;20525;-66
2022/12/31 07:04:59;;;;;;;54.28;23.80;;;;;;;3.64;100.00;99417.25;5050009;28;20416;-67
2022/12/31 07:07:52;;;;;;;57.97;24.45;;;;;;;3.61;100.00;99419.94;5034217;28;20073;-68
2022/12/31 07:11:02;;;;;;;53.03;22.52;;;;;;;3.57;100.00;99417.41;5046013;28;20055;-66
2022/12/31 07:14:02;;;;;;;47.42;21.42;;;;;;;3.52;100.00;99410.69;5041789;28;20049;-68
2022/12/31 07:17:02;;;;;;;46.22;21.95;;;;;;;3.50;100.00;99420.22;5044645;28;20045;-66
2022/12/31 07:20:11;;;;;;;45.25;20.42;;;;;;;3.45;100.00;99428.13;5036014;28;20504;-67
2022/12/31 07:22:57;;;;;;;43.88;21.40;;;;;;;3.45;100.00;99439.34;5051025;28;20140;-68
2022/12/31 07:25:50;;;;;;;39.97;20.27;;;;;;;3.54;100.00;99440.81;5050904;28;20041;-66
2022/12/31 07:28:48;;;;;;;39.55;19.95;;;;;;;3.52;100.00;99446.94;5035950;28;20049;-66
2022/12/31 07:31:53;;;;;;;49.38;21.83;;;;;;;3.48;100.00;99448.78;5042540;28;20045;-65
2022/12/31 07:35:09;;;;;;;44.10;20.75;;;;;;;3.52;100.00;99449.53;5053887;28;20044;-68
2022/12/31 07:37:58;;;;;;;49.97;22.83;;;;;;;3.52;100.00;99446.94;5041672;28;20094;-67
2022/12/31 07:41:03;;;;;;;53.75;24.50;;;;;;;3.45;100.00;99446.28;5036548;28;20446;-67
2022/12/31 07:44:08;;;;;;;55.10;24.60;;;;;;;3.50;100.00;99449.59;5049540;28;20066;-67
2022/12/31 07:46:59;;;;;;;57.78;23.85;;;;;;;3.41;100.00;99447.25;5050740;28;20053;-66
2022/12/31 07:49:44;;;;;;;50.17;22.67;;;;;;;3.44;100.00;99440.22;5049392;28;20060;-67
2022/12/31 07:52:29;;;;;;;48.42;22.10;;;;;;;3.37;100.00;99446.50;5049457;28;20045;-67
2022/12/31 07:55:13;;;;;;;45.75;21.73;;;;;;;3.41;100.00;99452.44;5037680;28;20136;-66
2022/12/31 07:58:09;;;;;;;42.60;19.70;;;;;;;3.54;100.00;99456.38;5050107;28;20080;-66
2022/12/31 08:00:56;;;;;;;42.55;20.70;;;;;;;3.70;100.00;99442.97;5050517;28;20511;-68
2022/12/31 08:03:54;;;;;;;39.30;20.10;;;;;;;3.76;100.00;99462.69;5050326;28;20473;-67
2022/12/31 08:06:50;;;;;;;38.47;18.80;;;;;;;3.72;100.00;99464.50;5037771;28;20060;-67
2022/12/31 08:09:59;;;;;;;36.00;18.67;;;;;;;3.81;100.00;99478.94;5049890;28;20065;-68
2022/12/31 08:12:48;;;;;;;36.53;17.63;;;;;;;3.93;100.00;99467.38;5049566;28;20105;-67
2022/12/31 08:15:35;;;;;;;40.47;20.10;;;;;;;4.00;100.00;99488.78;5050360;28;20159;-66
2022/12/31 08:18:20;;;;;;;35.38;18.92;;;;;;;3.99;100.00;99487.94;5050283;28;20041;-68
2022/12/31 08:21:14;;;;;;;43.95;19.98;;;;;;;3.89;100.00;99476.97;5049195;28;20041;-67
2022/12/31 08:24:23;;;;;;;43.85;21.70;;;;;;;3.86;100.00;99468.44;5049675;28;20480;-66
2022/12/31 08:27:22;;;;;;;47.90;21.95;;;;;;;3.69;100.00;99486.19;5048917;28;20041;-66
2022/12/31 08:30:11;;;;;;;37.95;19.50;;;;;;;3.72;100.00;99485.25;5049913;28;20519;-67
2022/12/31 08:33:14;;;;;;;40.63;20.58;;;;;;;3.76;100.00;99466.13;5038431;28;20044;-67
2022/12/31 08:36:20;;;;;;;38.78;19.35;;;;;;;3.81;100.00;99486.72;5036688;28;20577;-67
2022/12/31 08:39:47;;;;;;;40.40;18.92;;;;;;;3.89;100.00;99481.31;5048904;28;20051;-67
2022/12/31 08:42:42;;;;;;;42.80;20.23;;;;;;;3.98;100.00;99483.66;5039278;28;20044;-67
2022/12/31 08:45:37;;;;;;;40.72;20.65;;;;;;;4.15;100.00;99496.09;5048577;28;20033;-68
2022/12/31 08:48:40;;;;;;;44.35;21.83;;;;;;;4.27;100.00;99481.06;5049862;28;20116;-66
2022/12/31 08:51:26;;;;;;;35.40;18.70;;;;;;;4.26;100.00;99492.34;5049691;28;20048;-66
2022/12/31 08:54:12;;;;;;;39.00;19.30;;;;;;;4.48;100.00;99494.25;5051509;28;20045;-66
2022/12/31 08:57:26;;;;;;;36.55;19.23;;;;;;;4.52;100.00;99490.66;5054154;28;20911;-68
2022/12/31 09:00:16;;;;;;;35.33;17.77;;;;;;;4.59;100.00;99486.97;5042633;28;20048;-67
2022/12/31 09:03:20;;;;;;;37.30;18.33;;;;;;;4.66;100.00;99491.06;5052527;28;20037;-67
2022/12/31 09:06:25;;;;;;;34.33;16.15;;;;;;;4.74;100.00;99497.75;5053731;28;20048;-67
2022/12/31 09:09:26;;;;;;;29.95;16.77;;;;;;;4.92;100.00;99496.28;5052121;28;20688;-66
2022/12/31 09:12:30;;;;;;;30.02;16.38;;;;;;;4.95;100.00;99483.22;5052485;28;20053;-66
2022/12/31 09:15:19;;;;;;;28.08;15.38;;;;;;;5.30;100.00;99477.72;5042833;28;20056;-67
2022/12/31 09:18:04;;;;;;;28.90;15.63;;;;;;;5.98;100.00;99484.78;5053370;28;20105;-68
2022/12/31 09:20:49;;;;;;;26.60;15.05;;;;;;;6.65;100.00;99481.34;5053257;28;20041;-68
2022/12/31 09:23:34;;;;;;;26.63;13.55;;;;;;;6.75;100.00;99485.28;5053866;28;20049;-68
2022/12/31 09:26:51;;;;;;;28.30;16.02;;;;;;;7.39;100.00;99477.38;5041455;28;20041;-68
2022/12/31 09:30:00;;;;;;;21.80;13.05;;;;;;;7.66;100.00;99480.56;5041940;28;20040;-69
2022/12/31 09:32:58;;;;;;;26.00;13.50;;;;;;;8.26;100.00;99488.25;5053531;28;20041;-69
2022/12/31 09:35:55;;;;;;;19.70;12.20;;;;;;;8.48;98.23;99487.25;5051707;28;20041;-71
2022/12/31 09:38:51;;;;;;;20.58;12.32;;;;;;;8.58;96.93;99477.22;5052878;28;20044;-71
2022/12/31 09:41:36;;;;;;;21.55;12.38;;;;;;;8.40;98.09;99480.69;5053036;28;20049;-71
2022/12/31 09:44:52;;;;;;;19.35;11.73;;;;;;;8.64;97.13;99468.22;5051824;28;20125;-71
2022/12/31 09:48:04;;;;;;;19.13;11.27;;;;;;;9.02;95.26;99467.25;5043878;28;20072;-72
2022/12/31 09:51:13;;;;;;;21.92;12.85;;;;;;;9.03;94.33;99470.69;5044112;28;20057;-71
2022/12/31 09:54:16;;;;;;;20.23;11.77;;;;;;;9.15;92.97;99462.22;5042944;28;20411;-70
2022/12/31 09:57:11;;;;;;;23.60;14.18;;;;;;;9.92;89.94;99466.91;5041716;28;20170;-71
2022/12/31 10:00:05;;;;;;;19.17;10.88;;;;;;;10.40;86.82;99458.19;5038842;28;20045;-71
2022/12/31 10:03:03;;;;;;;21.52;13.10;;;;;;;10.34;85.84;99462.00;5038305;28;20118;-71
2022/12/31 10:06:10;;;;;;;20.70;11.88;;;;;;;10.37;85.79;99471.44;5051304;28;20114;-72
2022/12/31 10:09:13;;;;;;;18.67;10.73;;;;;;;11.16;82.67;99476.56;5052860;28;20049;-72
2022/12/31 10:12:05;;;;;;;18.80;10.70;;;;;;;11.43;79.60;99482.88;5050411;28;20056;-72
2022/12/31 10:15:10;;;;;;;19.73;11.02;;;;;;;11.58;78.51;99479.31;5052230;28;20040;-72
2022/12/31 10:18:19;;;;;;;18.90;10.80;;;;;;;11.41;79.38;99458.50;5051362;28;20484;-71
2022/12/31 10:21:25;;;;;;;18.45;11.23;;;;;;;11.63;80.06;99462.44;5052214;28;20099;-71
2022/12/31 10:24:19;;;;;;;14.48;8.10;;;;;;;12.01;79.77;99456.56;5051932;28;20036;-73
2022/12/31 10:27:29;;;;;;;19.58;10.88;;;;;;;12.04;76.87;99461.63;5052111;28;20132;-71
2022/12/31 10:30:17;;;;;;;15.20;9.90;;;;;;;12.37;75.01;99464.00;5036753;28;20451;-71
2022/12/31 10:33:28;;;;;;;14.63;8.85;;;;;;;12.04;77.56;99471.28;5052061;28;20037;-72
2022/12/31 10:37:01;;;;;;;14.85;9.15;;;;;;;11.33;78.58;99474.72;5041958;28;20048;-72
2022/12/31 10:40:05;;;;;;;19.85;11.27;;;;;;;11.47;78.14;99460.78;5043613;28;20594;-72
2022/12/31 10:43:14;;;;;;;16.85;9.75;;;;;;;11.81;77.47;99466.56;5043346;28;20052;-72
2022/12/31 10:46:17;;;;;;;20.90;11.07;;;;;;;11.56;77.32;99462.81;5042950;28;20557;-72
2022/12/31 10:49:16;;;;;;;21.58;12.27;;;;;;;10.04;82.69;99470.63;5041317;28;20064;-71
2022/12/31 10:52:10;;;;;;;20.50;11.75;;;;;;;9.98;84.68;99466.59;5038258;28;20419;-71
2022/12/31 10:55:07;;;;;;;20.48;12.30;;;;;;;9.71;86.94;99464.53;5051100;28;20060;-72
2022/12/31 10:58:23;;;;;;;21.10;12.77;;;;;;;9.40;88.45;99471.38;5050626;28;20044;-71
2022/12/31 11:01:31;;;;;;;20.98;12.52;;;;;;;8.99;91.95;99459.56;5051799;28;20068;-70
2022/12/31 11:04:38;;;;;;;22.58;12.55;;;;;;;9.38;91.00;99452.34;5050579;28;20279;-70
2022/12/31 11:07:40;;;;;;;23.30;13.50;;;;;;;9.49;89.75;99451.75;5051811;28;20105;-70
2022/12/31 11:10:59;;;;;;;19.77;11.95;;;;;;;9.60;90.20;99448.56;5051227;28;20045;-71
2022/12/31 11:14:21;;;;;;;23.98;13.60;;;;;;;9.26;91.20;99445.97;5041586;28;20040;-71
2022/12/31 11:17:24;;;;;;;21.83;12.77;;;;;;;9.52;90.73;99456.84;5042228;28;20045;-70
2022/12/31 11:20:22;;;;;;;21.13;12.38;;;;;;;8.83;93.90;99443.81;5041488;28;20547;-70
2022/12/31 11:23:07;;;;;;;25.35;13.88;;;;;;;8.43;94.27;99438.75;5039188;28;20044;-70
2022/12/31 11:26:01;;;;;;;24.70;13.55;;;;;;;8.10;96.32;99429.88;5049791;28;20099;-69
2022/12/31 11:29:09;;;;;;;24.55;14.32;;;;;;;8.07;98.89;99432.63;5050841;28;20049;-69
2022/12/31 11:32:30;;;;;;;24.52;14.45;;;;;;;8.08;99.02;99421.28;5028787;28;20061;-70
2022/12/31 11:35:38;;;;;;;24.77;14.52;;;;;;;9.01;93.03;99420.28;5028118;28;20045;-69
2022/12/31 11:38:36;;;;;;;23.17;14.63;;;;;;;8.80;93.15;99428.25;4957195;28;20047;-71
2022/12/31 11:41:32;;;;;;;24.85;13.60;;;;;;;9.66;90.08;99427.31;4962048;28;20047;-70
2022/12/31 11:44:23;;;;;;;22.58;13.25;;;;;;;10.10;88.34;99435.44;4970039;28;20337;-71
2022/12/31 11:47:28;;;;;;;25.73;14.77;;;;;;;10.23;85.80;99435.59;4942528;28;20050;-72
2022/12/31 11:50:35;;;;;;;24.67;14.57;;;;;;;10.18;85.46;99429.75;4964548;28;20121;-72
2022/12/31 11:53:56;;;;;;;27.40;15.55;;;;;;;9.31;88.75;99445.72;4962914;28;20046;-71
2022/12/31 11:56:46;;;;;;;26.88;15.85;;;;;;;9.35;89.85;99448.09;4912104;29;20044;-71
2022/12/31 11:59:31;;;;;;;24.08;14.55;;;;;;;9.48;90.18;99440.44;4912151;29;20090;-70
2022/12/31 12:02:33;;;;;;;25.70;14.95;;;;;;;9.88;85.83;99439.22;4901722;29;20049;-72
2022/12/31 12:05:22;;;;;;;27.95;15.23;;;;;;;10.08;85.61;99439.91;4902933;29;20056;-71
2022/12/31 12:08:06;;;;;;;24.15;14.35;;;;;;;10.23;86.06;99432.97;4911780;29;20056;-70
2022/12/31 12:11:06;;;;;;;25.55;14.90;;;;;;;10.36;82.85;99440.97;4926875;29;20071;-71
2022/12/31 12:13:51;;;;;;;24.85;14.32;;;;;;;10.10;84.42;99438.03;4922475;29;20051;-71
2022/12/31 12:16:36;;;;;;;25.38;14.57;;;;;;;10.43;82.51;99429.19;4982308;28;20470;-71
2022/12/31 12:19:25;;;;;;;21.13;12.88;;;;;;;10.52;82.09;99440.97;4980692;28;20508;-72
2022/12/31 12:22:21;;;;;;;22.77;13.73;;;;;;;10.00;82.74;99436.84;4981553;28;20104;-72
2022/12/31 12:25:15;;;;;;;21.75;12.50;;;;;;;10.54;82.01;99435.63;4999772;28;20049;-71
2022/12/31 12:28:16;;;;;;;23.58;13.82;;;;;;;11.14;77.59;99431.25;5008351;28;20071;-71
2022/12/31 12:31:04;;;;;;;24.10;13.30;;;;;;;11.41;77.58;99432.25;5008376;28;20049;-72
2022/12/31 12:33:51;;;;;;;20.13;13.02;;;;;;;11.45;76.00;99436.41;5038638;28;20081;-71
2022/12/31 12:36:45;;;;;;;20.83;12.32;;;;;;;10.67;79.14;99435.75;5049508;28;20095;-72
2022/12/31 12:39:33;;;;;;;17.85;11.63;;;;;;;10.27;82.52;99429.22;5040840;28;20116;-71
2022/12/31 12:42:17;;;;;;;21.13;12.90;;;;;;;11.19;78.16;99431.81;5049955;28;20124;-72
2022/12/31 12:45:06;;;;;;;16.92;10.10;;;;;;;12.19;76.57;99425.66;5048576;28;20178;-71
2022/12/31 12:48:07;;;;;;;20.45;12.27;;;;;;;12.11;72.19;99420.06;5048691;28;20114;-71
2022/12/31 12:50:53;;;;;;;20.58;11.35;;;;;;;11.26;77.87;99416.53;5049935;28;20049;-71
2022/12/31 12:53:56;;;;;;;18.27;11.10;;;;;;;12.20;74.07;99429.16;5037440;28;20072;-71
2022/12/31 12:57:09;;;;;;;17.05;11.18;;;;;;;12.07;73.86;99416.78;5049273;28;20041;-71
2022/12/31 13:00:13;;;;;;;18.27;11.27;;;;;;;12.01;73.05;99416.34;5048970;28;20052;-71
2022/12/31 13:02:57;;;;;;;18.30;11.88;;;;;;;12.40;73.82;99425.19;5049749;28;20354;-71
2022/12/31 13:06:19;;;;;;;13.95;9.50;;;;;;;13.28;69.11;99424.66;5049528;28;20075;-71
2022/12/31 13:09:39;;;;;;;15.18;10.05;;;;;;;13.19;70.36;99423.50;5076906;28;20049;-71
2022/12/31 13:12:34;;;;;;;16.58;10.27;;;;;;;14.21;65.46;99412.00;5042341;28;20396;-71
2022/12/31 13:15:29;;;;;;;15.80;9.98;;;;;;;13.58;68.67;99422.66;5038405;28;20186;-71
2022/12/31 13:18:19;;;;;;;17.48;10.82;;;;;;;13.88;65.28;99417.00;5036026;28;20041;-71
2022/12/31 13:21:28;;;;;;;16.75;10.10;;;;;;;13.71;65.60;99412.09;5048104;28;20101;-71
2022/12/31 13:24:24;;;;;;;15.45;9.15;;;;;;;13.84;67.41;99426.06;5049255;28;20164;-71
2022/12/31 13:27:46;;;;;;;14.55;9.38;;;;;;;14.03;66.82;99414.19;5049351;28;20053;-71